London Corbin Airport Magee Field London US
ICAO: KLOZ
IATA: LOZ
Category: Medium
Scheduled Services: No

Elevation: 1212 ft
TransAlt. 18000 ft.

Airport Communications:
ASOS:119.075
INDIANAPOLIS CNTR:121.325
LOUISVILLE RDO:122.2
CTAF/UNICOM:123

KLOZ Zoom In..

If you have problems with the map follow the link
https://www.worldairports.se/pages/airport.php?
ICAO=KLOZ

Runways:

(A) RW 06 length 5751 ft width 150 ft
ILS 110.90 / hdg 57

(B) RW 24 length 5751 ft width 150 ft
---- / hdg 237

Location; KLOZ
Day. 18 / Time. 01.53 Zulu
* Altimeter: 29.81
* Temperature: 08° c. 46.4°f.
* Wind from: 290° Speed 09 kn.
Dewpoint: 08° c.
Visibility: 8 Statute Miles.
Clouds: Broken 600 ft.
Clouds: Overcast 1200 ft.
Conditions: Light Rain.

KLOZ 180153Z AUTO 29009KT 8SM -RA BKN006 OVC012 08/08 A2981 RMK AO2 SLP097 P0011 T00830083


Wind From 290°
Speed 09 kn.

 
 
jpsmedia.com for Web Design worldairports.se 2019   terms of use